createdAt,value
2019-03-09T00:00:45.872Z,65.14
2019-03-09T00:03:19.299Z,65.04
2019-03-09T00:05:51.073Z,65.47
2019-03-09T00:08:23.168Z,65.78
2019-03-09T00:10:54.779Z,66.22
2019-03-09T00:13:28.107Z,66.44
2019-03-09T00:16:00.009Z,66.71
2019-03-09T00:18:31.428Z,66.76
2019-03-09T00:21:03.210Z,67.08
2019-03-09T00:23:53.687Z,67.07
2019-03-09T00:26:37.239Z,67.07
2019-03-09T00:29:18.620Z,66.94
2019-03-09T00:31:56.012Z,67.04
2019-03-09T00:34:27.098Z,67.00
2019-03-09T00:36:59.188Z,66.90
2019-03-09T00:39:29.896Z,67.13
2019-03-09T00:42:00.313Z,66.99
2019-03-09T00:44:31.031Z,67.21
2019-03-09T00:47:01.944Z,67.30
2019-03-09T00:49:32.802Z,67.30
2019-03-09T00:52:03.858Z,67.28
2019-03-09T00:54:36.748Z,67.35
2019-03-09T00:57:08.145Z,67.28
2019-03-09T00:59:39.308Z,67.22
2019-03-09T01:02:10.086Z,67.27
2019-03-09T01:04:40.953Z,67.33
2019-03-09T01:07:11.731Z,67.33
2019-03-09T01:09:42.126Z,67.44
2019-03-09T01:12:12.784Z,67.59
2019-03-09T01:14:43.292Z,67.82
2019-03-09T01:17:14.000Z,67.81
2019-03-09T01:19:45.057Z,68.06
2019-03-09T01:22:15.719Z,68.20
2019-03-09T01:24:46.485Z,68.38
2019-03-09T01:27:16.873Z,68.72
2019-03-09T01:29:47.574Z,68.89
2019-03-09T01:32:18.084Z,69.01
2019-03-09T01:34:48.650Z,68.96
2019-03-09T01:37:19.270Z,69.04
2019-03-09T01:39:49.805Z,69.03
2019-03-09T01:42:20.230Z,69.21
2019-03-09T01:44:50.653Z,69.25
2019-03-09T01:47:21.223Z,69.40
2019-03-09T01:49:51.694Z,69.47
2019-03-09T01:52:22.594Z,69.54
2019-03-09T01:54:53.044Z,69.63
2019-03-09T01:57:23.573Z,69.47
2019-03-09T01:59:54.559Z,69.79
2019-03-09T02:02:25.155Z,69.85
2019-03-09T02:04:55.741Z,69.96
2019-03-09T02:07:26.169Z,70.26
2019-03-09T02:09:56.567Z,70.55
2019-03-09T02:12:28.781Z,70.62
2019-03-09T02:15:00.344Z,70.92
2019-03-09T02:17:30.888Z,71.41
2019-03-09T02:20:01.765Z,71.77
2019-03-09T02:22:32.469Z,72.06
2019-03-09T02:25:02.934Z,72.33
2019-03-09T02:27:33.781Z,72.40
2019-03-09T02:30:04.506Z,72.80
2019-03-09T02:32:36.684Z,72.88
2019-03-09T02:35:09.612Z,73.00
2019-03-09T02:37:40.343Z,73.05
2019-03-09T02:40:13.718Z,73.29
2019-03-09T02:42:44.657Z,73.37
2019-03-09T02:45:16.543Z,73.48
2019-03-09T02:47:47.035Z,73.54
2019-03-09T02:50:17.512Z,73.64
2019-03-09T02:52:48.176Z,73.69
2019-03-09T02:55:18.608Z,73.62
2019-03-09T02:57:49.721Z,73.88
2019-03-09T03:00:21.276Z,74.06
2019-03-09T03:03:01.325Z,74.11
2019-03-09T03:05:31.756Z,74.25
2019-03-09T03:08:02.371Z,74.46
2019-03-09T03:10:33.460Z,73.88
2019-03-09T03:13:04.136Z,73.83
2019-03-09T03:15:35.947Z,73.57
2019-03-09T03:18:06.699Z,73.42
2019-03-09T03:20:37.834Z,73.21
2019-03-09T03:23:08.284Z,73.11
2019-03-09T03:25:38.728Z,72.55
2019-03-09T03:28:11.726Z,72.31
2019-03-09T03:30:42.608Z,71.97
2019-03-09T03:33:13.425Z,71.48
2019-03-09T03:35:43.927Z,70.93
2019-03-09T03:38:14.271Z,71.01
2019-03-09T03:40:46.345Z,71.18
2019-03-09T03:43:17.003Z,71.43
2019-03-09T03:45:48.064Z,71.91
2019-03-09T03:48:18.728Z,72.20
2019-03-09T03:50:49.548Z,72.50
2019-03-09T03:53:20.379Z,72.63
2019-03-09T03:55:51.141Z,72.81
2019-03-09T03:58:22.144Z,72.65
2019-03-09T04:00:52.654Z,72.42
2019-03-09T04:03:23.039Z,72.33
2019-03-09T04:05:53.864Z,72.10
2019-03-09T04:08:24.446Z,72.06
2019-03-09T04:10:55.240Z,72.15
2019-03-09T04:13:25.939Z,72.15
2019-03-09T04:15:56.488Z,72.05
2019-03-09T04:18:27.089Z,71.66
2019-03-09T04:20:57.491Z,71.49
2019-03-09T04:23:29.647Z,71.58
2019-03-09T04:26:00.453Z,71.86
2019-03-09T04:28:30.812Z,71.92
2019-03-09T04:31:02.497Z,72.17
2019-03-09T04:33:33.048Z,71.94
2019-03-09T04:36:03.454Z,71.94
2019-03-09T04:38:33.920Z,71.99
2019-03-09T04:41:04.911Z,71.86
2019-03-09T04:43:36.303Z,71.82
2019-03-09T04:46:06.795Z,71.77
2019-03-09T04:48:37.351Z,71.77
2019-03-09T04:51:07.911Z,71.80
2019-03-09T04:53:38.430Z,71.74
2019-03-09T04:56:08.962Z,71.47
2019-03-09T04:58:40.474Z,71.46
2019-03-09T05:01:10.943Z,71.44
2019-03-09T05:03:42.417Z,71.59
2019-03-09T05:06:15.621Z,71.60
2019-03-09T05:09:25.333Z,71.66
2019-03-09T05:11:55.784Z,71.57
2019-03-09T05:14:27.134Z,70.95
2019-03-09T05:16:57.556Z,70.74
2019-03-09T05:19:29.314Z,70.73
2019-03-09T05:22:00.846Z,69.93
2019-03-09T05:24:31.495Z,69.67
2019-03-09T05:27:02.077Z,69.29
2019-03-09T05:29:32.476Z,68.90
2019-03-09T05:32:04.629Z,68.66
2019-03-09T05:34:35.340Z,68.20
2019-03-09T05:37:05.792Z,67.53
2019-03-09T05:39:37.564Z,67.32
2019-03-09T05:42:10.211Z,67.28
2019-03-09T05:44:40.715Z,67.30
2019-03-09T05:47:11.129Z,67.09
2019-03-09T05:49:42.022Z,67.01
2019-03-09T05:52:37.931Z,66.83
2019-03-09T05:55:12.442Z,66.70
2019-03-09T05:57:42.958Z,66.54
2019-03-09T06:00:15.403Z,66.32
2019-03-09T06:02:45.843Z,66.32
2019-03-09T06:05:49.400Z,65.99
2019-03-09T06:08:20.105Z,65.50
2019-03-09T06:10:50.675Z,65.25
2019-03-09T06:13:21.065Z,64.97
2019-03-09T06:15:51.515Z,64.35
2019-03-09T06:18:22.175Z,64.03
2019-03-09T06:20:52.529Z,63.99
2019-03-09T06:23:22.874Z,63.77
2019-03-09T06:25:54.792Z,65.14
2019-03-09T06:28:25.604Z,63.50
2019-03-09T06:30:56.612Z,62.97
2019-03-09T06:33:34.396Z,62.88
2019-03-09T06:36:57.128Z,62.92
2019-03-09T06:39:32.991Z,62.85
2019-03-09T06:42:29.451Z,62.63
2019-03-09T06:44:59.986Z,62.40
2019-03-09T06:47:30.597Z,61.90
2019-03-09T06:50:01.101Z,61.53
2019-03-09T06:52:32.462Z,61.08
2019-03-09T06:55:03.176Z,60.13
2019-03-09T06:57:34.024Z,59.60
2019-03-09T07:00:35.989Z,58.39
2019-03-09T07:03:07.480Z,58.18
2019-03-09T07:05:37.931Z,57.37
2019-03-09T07:08:08.453Z,56.87
2019-03-09T07:10:38.798Z,56.41
2019-03-09T07:13:09.203Z,55.71
2019-03-09T07:15:42.202Z,54.91
2019-03-09T07:18:17.836Z,53.80
2019-03-09T07:20:48.514Z,53.52
2019-03-09T07:23:18.966Z,53.07
2019-03-09T07:25:49.707Z,52.18
2019-03-09T07:28:21.004Z,52.44
2019-03-09T07:30:52.005Z,51.90
2019-03-09T07:33:22.437Z,51.59
2019-03-09T07:35:54.708Z,50.97
2019-03-09T07:38:25.485Z,51.01
2019-03-09T07:40:56.310Z,50.51
2019-03-09T07:43:27.136Z,50.07
2019-03-09T07:45:58.020Z,50.44
2019-03-09T07:48:28.450Z,49.94
2019-03-09T07:50:58.935Z,49.62
2019-03-09T07:53:29.666Z,49.46
2019-03-09T07:56:03.296Z,49.28
2019-03-09T07:58:34.023Z,48.92
2019-03-09T08:01:06.815Z,48.98
2019-03-09T08:03:37.591Z,48.20
2019-03-09T08:06:08.307Z,47.96
2019-03-09T08:08:38.818Z,47.35
2019-03-09T08:11:09.240Z,47.37
2019-03-09T08:13:39.864Z,47.49
2019-03-09T08:16:10.382Z,47.26
2019-03-09T08:18:40.996Z,46.70
2019-03-09T08:21:11.656Z,47.10
2019-03-09T08:23:42.431Z,46.73
2019-03-09T08:26:14.243Z,46.30
2019-03-09T08:28:44.713Z,45.53
2019-03-09T08:31:15.290Z,45.57
2019-03-09T08:33:45.646Z,45.68
2019-03-09T08:36:16.282Z,45.91
2019-03-09T08:38:46.641Z,45.16
2019-03-09T08:41:17.294Z,45.40
2019-03-09T08:43:47.749Z,45.06
2019-03-09T08:46:18.251Z,45.47
2019-03-09T08:48:48.661Z,44.95
2019-03-09T08:51:19.086Z,44.88
2019-03-09T08:53:50.607Z,45.10
2019-03-09T08:56:21.052Z,44.94
2019-03-09T08:58:51.510Z,44.45
2019-03-09T09:01:21.978Z,43.61
2019-03-09T09:03:52.545Z,42.49
2019-03-09T09:06:23.129Z,43.37
2019-03-09T09:08:53.620Z,43.24
2019-03-09T09:11:25.386Z,43.66
2019-03-09T09:13:55.902Z,43.32
2019-03-09T09:16:26.648Z,42.89
2019-03-09T09:18:58.365Z,43.12
2019-03-09T09:21:28.976Z,42.79
2019-03-09T09:23:59.535Z,42.53
2019-03-09T09:26:30.186Z,42.32
2019-03-09T09:29:00.650Z,42.32
2019-03-09T09:31:31.384Z,42.43
2019-03-09T09:34:02.037Z,41.93
2019-03-09T09:36:32.885Z,41.43
2019-03-09T09:39:04.037Z,41.54
2019-03-09T09:41:36.305Z,41.45
2019-03-09T09:44:06.840Z,41.41
2019-03-09T09:46:37.398Z,41.08
2019-03-09T09:49:07.886Z,40.60
2019-03-09T09:51:38.480Z,40.87
2019-03-09T09:54:09.143Z,40.80
2019-03-09T09:56:39.668Z,39.64
2019-03-09T09:59:10.342Z,39.37
2019-03-09T10:01:40.902Z,39.07
2019-03-09T10:04:11.278Z,38.55
2019-03-09T10:06:41.773Z,38.45
2019-03-09T10:09:12.507Z,38.38
2019-03-09T10:11:43.074Z,38.40
2019-03-09T10:14:13.438Z,38.64
2019-03-09T10:16:44.050Z,38.43
2019-03-09T10:19:14.427Z,38.39
2019-03-09T10:21:45.054Z,38.66
2019-03-09T10:24:16.749Z,37.73
2019-03-09T10:26:47.862Z,37.45
2019-03-09T10:29:18.440Z,37.51
2019-03-09T10:31:49.361Z,37.24
2019-03-09T10:34:19.732Z,37.11
2019-03-09T10:36:50.286Z,37.52
2019-03-09T10:39:20.740Z,37.52
2019-03-09T10:41:51.099Z,37.65
2019-03-09T10:44:21.807Z,37.92
2019-03-09T10:46:52.164Z,38.28
2019-03-09T10:49:22.675Z,38.12
2019-03-09T10:51:53.144Z,38.12
2019-03-09T10:54:23.564Z,38.39
2019-03-09T10:56:53.992Z,38.80
2019-03-09T10:59:24.449Z,38.66
2019-03-09T11:01:54.822Z,38.81
2019-03-09T11:04:27.805Z,38.89
2019-03-09T11:06:57.703Z,39.26
2019-03-09T11:09:28.094Z,39.54
2019-03-09T11:11:58.593Z,39.89
2019-03-09T11:14:29.010Z,40.83
2019-03-09T11:16:59.528Z,41.05
2019-03-09T11:19:29.944Z,41.75
2019-03-09T11:22:00.499Z,43.07
2019-03-09T11:24:31.808Z,43.31
2019-03-09T11:27:02.208Z,42.60
2019-03-09T11:29:32.545Z,42.67
2019-03-09T11:32:02.966Z,42.68
2019-03-09T11:34:33.350Z,42.74
2019-03-09T11:37:03.875Z,43.26
2019-03-09T11:39:34.189Z,43.50
2019-03-09T11:42:04.974Z,44.13
2019-03-09T11:44:35.442Z,45.03
2019-03-09T11:47:07.435Z,45.30
2019-03-09T11:49:38.741Z,45.15
2019-03-09T11:52:16.330Z,45.08
2019-03-09T11:54:41.434Z,44.56
2019-03-09T11:57:12.215Z,43.99
2019-03-09T11:59:42.532Z,43.73
2019-03-09T12:02:12.941Z,43.62
2019-03-09T12:04:47.088Z,43.71
2019-03-09T12:07:17.803Z,43.61
2019-03-09T12:09:48.307Z,43.78
2019-03-09T12:12:18.757Z,44.58
2019-03-09T12:14:49.354Z,44.74
2019-03-09T12:17:19.752Z,46.93
2019-03-09T12:19:50.152Z,48.95
2019-03-09T12:22:20.579Z,51.39
2019-03-09T12:24:53.989Z,53.43
2019-03-09T12:27:24.558Z,57.86
2019-03-09T12:29:55.265Z,61.59
2019-03-09T12:32:25.785Z,63.09
2019-03-09T12:34:56.572Z,64.59
2019-03-09T12:37:27.065Z,66.00
2019-03-09T12:39:57.534Z,66.37
2019-03-09T12:42:28.076Z,68.16
2019-03-09T12:44:58.807Z,69.29
2019-03-09T12:47:29.192Z,71.58
2019-03-09T12:49:59.795Z,71.95
2019-03-09T12:52:30.432Z,73.34
2019-03-09T12:55:00.881Z,72.44
2019-03-09T12:57:32.666Z,72.21
2019-03-09T13:00:03.291Z,73.25
2019-03-09T13:02:33.963Z,74.69
2019-03-09T13:05:04.455Z,74.61
2019-03-09T13:07:34.854Z,74.62
2019-03-09T13:10:06.217Z,75.24
2019-03-09T13:12:38.998Z,74.34
2019-03-09T13:15:09.541Z,73.88
2019-03-09T13:17:41.033Z,72.81
2019-03-09T13:20:11.798Z,72.21
2019-03-09T13:22:42.236Z,70.79
2019-03-09T13:25:12.838Z,71.04
2019-03-09T13:27:43.578Z,70.45
2019-03-09T13:30:16.568Z,70.70
2019-03-09T13:32:47.322Z,70.63
2019-03-09T13:35:17.699Z,70.96
2019-03-09T13:37:48.733Z,70.65
2019-03-09T13:40:19.145Z,70.40
2019-03-09T13:42:49.553Z,69.63
2019-03-09T13:45:19.872Z,69.57
2019-03-09T13:47:50.260Z,69.20
2019-03-09T13:50:20.649Z,68.38
2019-03-09T13:52:52.483Z,68.65
2019-03-09T13:55:23.233Z,66.99
2019-03-09T13:57:55.496Z,67.03
2019-03-09T14:00:26.124Z,67.05
2019-03-09T14:02:56.868Z,66.51
2019-03-09T14:05:27.713Z,66.45
2019-03-09T14:07:59.853Z,66.24
2019-03-09T14:10:30.621Z,65.75
2019-03-09T14:13:01.021Z,65.53
2019-03-09T14:15:31.700Z,64.73
2019-03-09T14:18:02.308Z,64.41
2019-03-09T14:20:32.689Z,64.26
2019-03-09T14:23:03.087Z,63.68
2019-03-09T14:25:33.690Z,63.06
2019-03-09T14:28:04.434Z,62.70
2019-03-09T14:30:35.249Z,61.62
2019-03-09T14:33:05.873Z,60.79
2019-03-09T14:35:36.273Z,60.88
2019-03-09T14:38:06.792Z,60.64
2019-03-09T14:40:37.241Z,60.75
2019-03-09T14:43:07.716Z,59.27
2019-03-09T14:45:38.551Z,59.53
2019-03-09T14:48:09.233Z,58.86
2019-03-09T14:50:39.813Z,58.74
2019-03-09T14:53:10.278Z,58.85
2019-03-09T14:55:40.738Z,58.60
2019-03-09T14:58:11.163Z,58.73
2019-03-09T15:00:41.519Z,59.07
2019-03-09T15:03:11.947Z,58.90
2019-03-09T15:05:42.312Z,59.29
2019-03-09T15:08:14.944Z,59.54
2019-03-09T15:10:45.411Z,59.56
2019-03-09T15:13:15.911Z,59.71
2019-03-09T15:15:46.375Z,60.44
2019-03-09T15:18:16.695Z,60.56
2019-03-09T15:20:47.180Z,60.91
2019-03-09T15:23:17.523Z,61.30
2019-03-09T15:25:47.967Z,61.31
2019-03-09T15:28:18.437Z,61.72
2019-03-09T15:30:48.831Z,61.99
2019-03-09T15:33:21.702Z,62.23
2019-03-09T15:35:53.891Z,62.32
2019-03-09T15:38:24.286Z,62.34
2019-03-09T15:40:54.820Z,62.49
2019-03-09T15:43:25.443Z,62.44
2019-03-09T15:45:55.963Z,62.29
2019-03-09T15:48:26.476Z,62.24
2019-03-09T15:50:57.479Z,62.33
2019-03-09T15:53:27.819Z,62.33
2019-03-09T15:55:58.401Z,62.13
2019-03-09T15:58:31.009Z,62.20
2019-03-09T16:01:01.540Z,62.00
2019-03-09T16:03:32.266Z,62.22
2019-03-09T16:06:02.776Z,62.10
2019-03-09T16:08:33.183Z,62.10
2019-03-09T16:11:03.868Z,62.00
2019-03-09T16:13:34.360Z,62.01
2019-03-09T16:16:05.001Z,62.03
2019-03-09T16:18:35.388Z,62.11
2019-03-09T16:21:05.752Z,62.10
2019-03-09T16:23:36.116Z,62.08
2019-03-09T16:26:06.599Z,62.28
2019-03-09T16:28:37.091Z,62.20
2019-03-09T16:31:07.474Z,62.16
2019-03-09T16:33:37.869Z,62.24
2019-03-09T16:36:08.350Z,62.26
2019-03-09T16:38:38.908Z,62.33
2019-03-09T16:41:09.728Z,62.37
2019-03-09T16:43:40.542Z,62.55
2019-03-09T16:46:11.408Z,62.60
2019-03-09T16:48:41.897Z,62.79
2019-03-09T16:51:12.550Z,62.57
2019-03-09T16:53:43.464Z,62.71
2019-03-09T16:56:14.002Z,62.72
2019-03-09T16:58:46.622Z,62.72
2019-03-09T17:01:17.145Z,62.93
2019-03-09T17:03:47.663Z,62.92
2019-03-09T17:06:18.368Z,63.05
2019-03-09T17:08:49.195Z,63.09
2019-03-09T17:11:20.124Z,62.92
2019-03-09T17:13:50.834Z,63.00
2019-03-09T17:16:21.288Z,62.84
2019-03-09T17:18:52.200Z,62.97
2019-03-09T17:21:22.974Z,62.95
2019-03-09T17:23:53.732Z,62.81
2019-03-09T17:26:24.478Z,62.75
2019-03-09T17:28:54.909Z,62.72
2019-03-09T17:31:25.611Z,62.53
2019-03-09T17:33:56.295Z,62.51
2019-03-09T17:36:27.484Z,62.41
2019-03-09T17:38:58.468Z,62.38
2019-03-09T17:41:29.486Z,62.35
2019-03-09T17:44:01.774Z,62.32
2019-03-09T17:46:33.331Z,62.08
2019-03-09T17:49:03.843Z,62.23
2019-03-09T17:51:34.722Z,62.14
2019-03-09T17:54:07.912Z,62.13
2019-03-09T17:56:38.450Z,61.98
2019-03-09T17:59:09.148Z,61.72
2019-03-09T18:01:39.671Z,61.81
2019-03-09T18:04:10.647Z,61.77
2019-03-09T18:06:41.322Z,61.65
2019-03-09T18:09:13.257Z,62.25
2019-03-09T18:11:44.019Z,62.21
2019-03-09T18:14:14.907Z,62.39
2019-03-09T18:16:52.458Z,62.42
2019-03-09T18:19:17.662Z,62.42
2019-03-09T18:21:48.870Z,62.64
2019-03-09T18:24:19.522Z,62.84
2019-03-09T18:26:50.722Z,63.09
2019-03-09T18:29:21.055Z,63.40
2019-03-09T18:31:51.872Z,63.66
2019-03-09T18:34:22.485Z,63.82
2019-03-09T18:36:53.082Z,64.01
2019-03-09T18:39:23.746Z,64.42
2019-03-09T18:41:54.588Z,64.22
2019-03-09T18:44:25.437Z,64.09
2019-03-09T18:46:56.167Z,63.83
2019-03-09T18:49:26.839Z,63.61
2019-03-09T18:51:57.653Z,62.87
2019-03-09T18:54:29.634Z,62.58
2019-03-09T18:57:00.640Z,62.61
2019-03-09T18:59:31.248Z,62.66
2019-03-09T19:02:02.107Z,63.83
2019-03-09T19:04:33.183Z,69.47
2019-03-09T19:07:03.841Z,71.68
2019-03-09T19:09:34.419Z,72.41
2019-03-09T19:12:04.883Z,72.77
2019-03-09T19:14:35.801Z,73.41
2019-03-09T19:17:06.576Z,76.47
2019-03-09T19:19:37.178Z,76.36
2019-03-09T19:22:07.722Z,76.57
2019-03-09T19:24:38.658Z,76.16
2019-03-09T19:27:10.632Z,76.49
2019-03-09T19:29:41.330Z,77.08
2019-03-09T19:32:12.369Z,77.23
2019-03-09T19:34:42.801Z,77.84
2019-03-09T19:37:13.330Z,77.86
2019-03-09T19:39:43.933Z,78.56
2019-03-09T19:42:14.851Z,78.44
2019-03-09T19:44:45.472Z,78.97
2019-03-09T19:47:16.456Z,79.49
2019-03-09T19:49:47.304Z,80.02
2019-03-09T19:52:18.123Z,80.14
2019-03-09T19:54:48.783Z,79.56
2019-03-09T19:57:19.164Z,79.47
2019-03-09T19:59:49.529Z,79.37
2019-03-09T20:02:20.271Z,79.47
2019-03-09T20:04:50.731Z,79.65
2019-03-09T20:07:21.578Z,79.99
2019-03-09T20:09:52.541Z,80.95
2019-03-09T20:12:23.387Z,81.11
2019-03-09T20:14:53.998Z,81.53
2019-03-09T20:17:25.671Z,81.78
2019-03-09T20:19:56.420Z,82.16
2019-03-09T20:22:27.076Z,82.62
2019-03-09T20:24:59.059Z,82.54
2019-03-09T20:27:30.085Z,82.28
2019-03-09T20:30:00.742Z,82.40
2019-03-09T20:32:31.700Z,82.77
2019-03-09T20:35:02.485Z,82.51
2019-03-09T20:37:33.172Z,82.70
2019-03-09T20:40:04.409Z,82.67
2019-03-09T20:42:36.004Z,82.41
2019-03-09T20:45:08.575Z,82.37
2019-03-09T20:47:39.029Z,82.57
2019-03-09T20:50:11.091Z,82.16
2019-03-09T20:52:41.762Z,81.78
2019-03-09T20:55:12.360Z,81.12
2019-03-09T20:57:44.107Z,81.14
2019-03-09T21:00:16.369Z,80.16
2019-03-09T21:02:47.043Z,80.29
2019-03-09T21:05:18.066Z,80.30
2019-03-09T21:07:48.759Z,80.13
2019-03-09T21:10:19.396Z,79.76
2019-03-09T21:12:57.430Z,79.53
2019-03-09T21:15:27.910Z,79.38
2019-03-09T21:17:58.650Z,78.36
2019-03-09T21:20:29.086Z,78.29
2019-03-09T21:22:59.893Z,77.49
2019-03-09T21:25:30.272Z,77.48
2019-03-09T21:28:01.022Z,77.21
2019-03-09T21:30:31.475Z,76.94
2019-03-09T21:33:01.896Z,76.88
2019-03-09T21:35:33.157Z,76.05
2019-03-09T21:38:03.539Z,76.51
2019-03-09T21:40:34.061Z,75.61
2019-03-09T21:43:04.442Z,75.96
2019-03-09T21:45:34.881Z,75.94
2019-03-09T21:48:05.865Z,75.23
2019-03-09T21:50:36.265Z,75.33
2019-03-09T21:53:06.755Z,74.95
2019-03-09T21:55:37.500Z,74.73
2019-03-09T21:58:08.053Z,74.76
2019-03-09T22:00:38.504Z,75.00
2019-03-09T22:03:09.035Z,74.74
2019-03-09T22:05:39.450Z,74.01
2019-03-09T22:08:09.998Z,73.29
2019-03-09T22:10:40.424Z,73.12
2019-03-09T22:13:11.836Z,72.58
2019-03-09T22:15:43.545Z,72.90
2019-03-09T22:18:14.941Z,73.05
2019-03-09T22:20:45.414Z,73.43
2019-03-09T22:23:15.743Z,75.00
2019-03-09T22:25:46.154Z,76.87
2019-03-09T22:28:18.368Z,78.19
2019-03-09T22:30:48.964Z,79.87
2019-03-09T22:33:19.409Z,81.04
2019-03-09T22:35:50.201Z,83.17
2019-03-09T22:38:20.617Z,84.73
2019-03-09T22:40:50.929Z,85.91
2019-03-09T22:43:21.353Z,86.55
2019-03-09T22:45:51.755Z,87.24
2019-03-09T22:48:23.184Z,87.84
2019-03-09T22:50:53.702Z,88.23
2019-03-09T22:53:24.092Z,88.64
2019-03-09T22:55:54.705Z,88.91
2019-03-09T22:58:25.213Z,89.51
2019-03-09T23:00:55.813Z,89.89
2019-03-09T23:03:26.274Z,89.93
2019-03-09T23:05:56.763Z,90.10
2019-03-09T23:08:27.382Z,90.36
2019-03-09T23:10:57.836Z,90.60
2019-03-09T23:13:28.253Z,90.89
2019-03-09T23:15:58.733Z,90.97
2019-03-09T23:18:29.246Z,90.65
2019-03-09T23:21:00.069Z,90.47
2019-03-09T23:23:30.542Z,90.48
2019-03-09T23:26:01.103Z,90.33
2019-03-09T23:28:46.235Z,90.16
2019-03-09T23:31:17.039Z,90.48
2019-03-09T23:33:47.620Z,90.25
2019-03-09T23:36:18.223Z,90.23
2019-03-09T23:38:48.958Z,89.56
2019-03-09T23:41:19.499Z,88.33
2019-03-09T23:43:50.152Z,86.23
2019-03-09T23:46:20.632Z,85.46
2019-03-09T23:48:51.411Z,85.38
2019-03-09T23:51:22.141Z,85.83
2019-03-09T23:53:53.844Z,85.53
2019-03-09T23:56:26.741Z,85.73
2019-03-09T23:58:59.277Z,85.44
